Time;durP1;ratioP1;P1;durP2;ratioP2;P2;SDS_P1;SDS_P2;PMS_P1;PMS_P2;Temp;Humidity;BMP_temperature;BMP_pressure;BME280_temperature;BME280_humidity;BME280_pressure;Samples;Min_cycle;Max_cycle;Signal;HPM_P1;HPM_P2
2022/07/31 00:01:35;;;;;;;4.63;2.20;;;;;;;20.39;35.92;92854.88;5051063;28;20163;-72
2022/07/31 00:04:01;;;;;;;4.60;2.00;;;;;;;20.47;35.75;92853.19;5032631;28;20059;-73
2022/07/31 00:06:26;;;;;;;6.53;2.20;;;;;;;20.46;35.50;92856.94;5033118;28;20036;-72
2022/07/31 00:08:52;;;;;;;4.10;2.10;;;;;;;20.56;35.38;92856.50;5048970;28;20053;-72
2022/07/31 00:11:17;;;;;;;6.47;2.10;;;;;;;20.59;35.50;92855.06;5049857;28;20501;-72
2022/07/31 00:13:43;;;;;;;5.30;2.20;;;;;;;20.53;35.69;92859.03;5050685;28;20398;-72
2022/07/31 00:16:09;;;;;;;4.57;1.98;;;;;;;20.64;35.42;92860.13;5049424;28;20076;-73
2022/07/31 00:18:34;;;;;;;3.33;2.00;;;;;;;20.52;36.20;92852.94;5049561;28;20169;-72
2022/07/31 00:21:01;;;;;;;6.85;2.20;;;;;;;20.44;36.31;92853.84;5050409;28;20067;-73
2022/07/31 00:23:28;;;;;;;6.90;2.20;;;;;;;20.50;35.95;92855.16;5050651;28;20052;-72
2022/07/31 00:25:53;;;;;;;5.57;1.90;;;;;;;20.42;36.07;92850.75;5050550;28;20033;-72
2022/07/31 00:28:19;;;;;;;3.75;2.03;;;;;;;20.37;35.72;92843.78;5050731;28;20037;-73
2022/07/31 00:30:44;;;;;;;3.85;1.98;;;;;;;20.38;35.79;92849.91;5004431;28;20405;-72
2022/07/31 00:33:11;;;;;;;5.30;2.00;;;;;;;20.31;36.04;92845.16;4996680;28;20061;-72
2022/07/31 00:35:37;;;;;;;4.18;1.90;;;;;;;20.24;36.49;92849.50;5011487;28;20075;-73
2022/07/31 00:38:02;;;;;;;5.68;2.20;;;;;;;20.32;36.54;92841.38;5012835;28;20139;-72
2022/07/31 00:40:28;;;;;;;5.90;2.10;;;;;;;20.29;36.55;92849.28;5022052;28;20033;-72
2022/07/31 00:42:53;;;;;;;4.00;2.00;;;;;;;20.27;36.65;92841.63;5020080;28;20033;-72
2022/07/31 00:45:19;;;;;;;4.50;2.10;;;;;;;20.25;36.43;92841.19;5054457;28;20414;-72
2022/07/31 00:47:44;;;;;;;3.70;2.00;;;;;;;20.22;36.81;92844.53;5020238;28;20032;-73
2022/07/31 00:50:11;;;;;;;3.95;1.95;;;;;;;20.18;36.53;92836.44;5036407;28;20056;-72
2022/07/31 00:52:37;;;;;;;5.10;2.03;;;;;;;20.33;35.69;92842.16;5017991;28;20038;-72
2022/07/31 00:55:03;;;;;;;4.53;2.13;;;;;;;20.34;36.50;92841.06;5000054;28;20075;-72
2022/07/31 00:57:29;;;;;;;6.63;1.90;;;;;;;20.34;36.24;92835.72;5016601;28;20033;-72
2022/07/31 00:59:55;;;;;;;6.38;2.13;;;;;;;20.31;36.52;92839.06;5016491;28;20080;-73
2022/07/31 01:02:20;;;;;;;4.70;2.08;;;;;;;20.28;36.56;92834.41;5010755;28;20049;-72
2022/07/31 01:04:46;;;;;;;3.58;1.80;;;;;;;20.14;36.48;92835.56;5016351;28;20033;-72
2022/07/31 01:07:11;;;;;;;5.45;2.33;;;;;;;20.28;36.80;92835.19;5034041;28;20607;-72
2022/07/31 01:09:37;;;;;;;6.40;2.10;;;;;;;20.26;36.68;92831.31;5016310;28;20073;-73
2022/07/31 01:12:05;;;;;;;4.85;2.15;;;;;;;20.18;37.11;92833.78;5016163;28;20116;-73
2022/07/31 01:14:42;;;;;;;4.88;2.30;;;;;;;20.13;36.78;92833.25;5034020;28;20033;-72
2022/07/31 01:17:09;;;;;;;5.15;2.10;;;;;;;20.10;37.02;92837.34;5016090;28;20087;-72
2022/07/31 01:19:40;;;;;;;4.47;2.00;;;;;;;20.10;37.05;92834.69;5032602;28;20037;-72
2022/07/31 01:22:34;;;;;;;5.95;2.00;;;;;;;20.15;36.41;92842.44;5021415;28;20037;-73
2022/07/31 01:25:13;;;;;;;4.45;2.35;;;;;;;20.13;36.77;92835.94;5035832;28;20037;-72
2022/07/31 01:27:51;;;;;;;5.05;2.20;;;;;;;20.14;36.73;92832.13;5016016;28;20167;-72
2022/07/31 01:30:18;;;;;;;5.13;2.20;;;;;;;20.20;36.39;92835.31;5015720;28;20061;-72
2022/07/31 01:32:48;;;;;;;6.43;2.00;;;;;;;20.21;36.62;92834.22;5022514;28;20032;-72
2022/07/31 01:35:25;;;;;;;4.32;2.08;;;;;;;20.23;36.64;92830.13;5019227;28;20048;-72
2022/07/31 01:38:07;;;;;;;5.82;2.00;;;;;;;20.20;36.76;92830.00;5035565;28;20075;-72
2022/07/31 01:40:36;;;;;;;4.10;2.13;;;;;;;20.20;36.74;92827.34;5035446;28;20119;-72
2022/07/31 01:43:10;;;;;;;3.50;2.15;;;;;;;20.17;36.98;92836.78;5030272;28;20025;-72
2022/07/31 01:45:39;;;;;;;4.60;2.28;;;;;;;20.31;36.18;92833.72;5015655;28;20037;-72
2022/07/31 01:48:09;;;;;;;6.22;2.20;;;;;;;20.25;36.91;92829.78;5015513;28;20091;-72
2022/07/31 01:50:37;;;;;;;5.32;2.28;;;;;;;20.24;36.78;92833.53;4998675;28;20030;-72
2022/07/31 01:53:03;;;;;;;4.32;2.25;;;;;;;20.24;37.04;92833.53;4996378;28;20088;-71
2022/07/31 01:55:34;;;;;;;4.25;2.22;;;;;;;20.23;37.10;92830.13;5031878;28;20411;-72
2022/07/31 01:58:01;;;;;;;3.63;2.00;;;;;;;20.24;37.12;92833.53;5032228;28;20572;-72
2022/07/31 02:00:28;;;;;;;4.60;2.17;;;;;;;20.20;37.41;92824.69;5015670;28;20034;-72
2022/07/31 02:02:57;;;;;;;3.75;2.10;;;;;;;20.17;37.68;92832.25;5032063;28;20468;-71
2022/07/31 02:05:24;;;;;;;4.38;2.10;;;;;;;20.23;37.27;92829.34;5015203;28;20319;-73
2022/07/31 02:07:51;;;;;;;5.15;2.20;;;;;;;20.24;37.29;92829.03;5031806;28;20392;-73
2022/07/31 02:10:22;;;;;;;4.18;2.33;;;;;;;20.27;37.19;92833.66;5015421;28;20033;-71
2022/07/31 02:12:49;;;;;;;5.93;2.20;;;;;;;20.22;37.25;92833.09;5031711;28;20502;-72
2022/07/31 02:15:17;;;;;;;5.18;2.63;;;;;;;20.18;37.72;92825.81;5020308;28;20395;-72
2022/07/31 02:17:46;;;;;;;9.38;2.20;;;;;;;20.10;37.75;92825.94;5011716;28;20037;-72
2022/07/31 02:20:22;;;;;;;5.22;2.10;;;;;;;20.06;37.80;92830.38;5012849;28;20391;-72
2022/07/31 02:22:51;;;;;;;5.13;2.30;;;;;;;20.05;37.90;92823.53;5011623;28;20120;-72
2022/07/31 02:25:17;;;;;;;5.03;2.17;;;;;;;20.04;38.29;92814.78;4997917;28;20431;-72
2022/07/31 02:27:44;;;;;;;5.03;2.20;;;;;;;20.03;38.21;92812.47;5011637;28;20099;-72
2022/07/31 02:30:12;;;;;;;4.25;2.28;;;;;;;20.04;37.75;92806.03;5011419;28;20041;-72
2022/07/31 02:32:39;;;;;;;4.22;2.10;;;;;;;20.00;37.99;92808.59;4978998;28;20030;-72
2022/07/31 02:35:06;;;;;;;4.47;2.30;;;;;;;19.98;38.30;92810.81;4999486;28;20084;-72
2022/07/31 02:37:35;;;;;;;5.13;2.20;;;;;;;19.94;38.55;92807.28;5011371;28;20072;-72
2022/07/31 02:40:03;;;;;;;5.97;2.20;;;;;;;19.91;38.67;92805.31;5011151;28;20034;-73
2022/07/31 02:42:30;;;;;;;4.68;2.25;;;;;;;19.94;38.55;92799.31;5011337;28;20038;-72
2022/07/31 02:44:57;;;;;;;4.22;2.38;;;;;;;19.92;38.58;92801.53;5011106;28;20128;-72
2022/07/31 02:47:25;;;;;;;3.75;2.03;;;;;;;19.92;38.68;92809.50;5009993;28;20296;-72
2022/07/31 02:49:54;;;;;;;4.18;2.17;;;;;;;19.89;38.62;92796.91;5014489;28;20018;-71
2022/07/31 02:52:21;;;;;;;4.70;2.47;;;;;;;20.06;38.38;92807.25;5014634;28;20049;-72
2022/07/31 02:54:47;;;;;;;5.72;2.30;;;;;;;19.98;38.65;92802.84;5034227;28;20073;-72
2022/07/31 02:57:12;;;;;;;4.93;2.42;;;;;;;19.97;38.67;92801.28;5051549;28;20077;-72
2022/07/31 02:59:39;;;;;;;4.60;2.30;;;;;;;19.94;38.62;92800.09;5033961;28;20041;-73
2022/07/31 03:02:05;;;;;;;4.88;2.20;;;;;;;20.02;38.34;92800.28;5017496;28;20037;-72
2022/07/31 03:04:36;;;;;;;4.30;2.20;;;;;;;19.99;38.93;92800.97;5018263;28;20033;-72
2022/07/31 03:07:02;;;;;;;5.57;2.25;;;;;;;19.96;38.82;92802.41;5033793;28;20040;-72
2022/07/31 03:09:29;;;;;;;5.88;2.30;;;;;;;19.94;38.78;92804.63;5017375;28;20040;-72
2022/07/31 03:12:14;;;;;;;4.32;2.40;;;;;;;19.95;39.14;92800.88;5051165;28;20044;-72
2022/07/31 03:14:41;;;;;;;4.22;2.20;;;;;;;20.09;38.23;92797.84;5051467;28;20510;-71
2022/07/31 03:17:07;;;;;;;6.57;2.60;;;;;;;20.02;38.60;92797.63;5051278;28;20462;-71
2022/07/31 03:19:33;;;;;;;4.97;2.20;;;;;;;20.01;38.80;92799.50;5016716;28;20044;-71
2022/07/31 03:21:59;;;;;;;6.50;2.38;;;;;;;20.01;39.13;92794.19;5017121;28;20074;-72
2022/07/31 03:24:25;;;;;;;4.15;2.25;;;;;;;19.91;39.56;92792.03;5051274;28;20041;-72
2022/07/31 03:26:52;;;;;;;6.30;2.20;;;;;;;19.86;39.18;92785.06;5033334;28;20411;-73
2022/07/31 03:29:17;;;;;;;4.28;2.38;;;;;;;19.79;39.46;92784.06;5006576;28;20025;-73
2022/07/31 03:31:43;;;;;;;4.72;2.38;;;;;;;19.74;39.71;92796.47;4997420;28;20037;-72
2022/07/31 03:34:10;;;;;;;5.32;2.30;;;;;;;19.69;39.73;92791.41;5013745;28;20041;-72
2022/07/31 03:36:36;;;;;;;4.00;2.10;;;;;;;19.67;39.61;92787.50;4997200;28;20033;-72
2022/07/31 03:39:02;;;;;;;6.80;2.22;;;;;;;19.65;39.72;92787.84;5003257;28;20122;-72
2022/07/31 03:41:37;;;;;;;8.30;2.22;;;;;;;19.60;40.55;92785.41;5017865;28;20099;-72
2022/07/31 03:44:02;;;;;;;4.60;2.55;;;;;;;19.55;40.67;92786.41;5033120;28;20082;-72
2022/07/31 03:46:29;;;;;;;4.80;2.40;;;;;;;19.49;40.52;92785.09;5033051;28;20460;-72
2022/07/31 03:48:54;;;;;;;5.88;2.42;;;;;;;19.44;40.76;92784.56;5033188;28;20112;-72
2022/07/31 03:51:23;;;;;;;5.30;2.22;;;;;;;19.39;40.90;92782.13;5033019;28;20036;-73
2022/07/31 03:53:50;;;;;;;4.88;2.30;;;;;;;19.32;41.43;92780.81;5016455;28;20045;-72
2022/07/31 03:56:50;;;;;;;4.70;2.30;;;;;;;19.25;41.81;92782.44;5021002;28;20405;-73
2022/07/31 03:59:18;;;;;;;4.43;2.42;;;;;;;19.19;41.79;92781.91;5033054;28;20069;-72
2022/07/31 04:01:44;;;;;;;4.43;2.35;;;;;;;19.18;41.54;92782.25;5001967;28;20045;-72
2022/07/31 04:04:16;;;;;;;5.23;2.20;;;;;;;19.12;41.79;92781.69;5013945;28;20037;-72
2022/07/31 04:06:55;;;;;;;7.70;2.10;;;;;;;19.07;42.32;92781.91;5044985;28;20040;-72
2022/07/31 04:09:20;;;;;;;7.00;2.33;;;;;;;18.99;42.68;92777.50;5016510;28;20047;-72
2022/07/31 04:11:47;;;;;;;5.22;2.58;;;;;;;18.93;42.92;92779.56;5032836;28;20036;-72
2022/07/31 04:14:13;;;;;;;7.45;2.10;;;;;;;18.89;43.08;92782.13;5015993;28;20112;-72
2022/07/31 04:16:39;;;;;;;6.15;2.55;;;;;;;18.90;43.23;92785.56;5032842;28;20041;-73
2022/07/31 04:19:04;;;;;;;7.95;2.40;;;;;;;18.93;42.89;92784.88;5032781;28;20049;-72
2022/07/31 04:21:30;;;;;;;6.20;2.30;;;;;;;19.05;42.74;92784.09;5014650;28;20111;-72
2022/07/31 04:23:55;;;;;;;8.85;2.40;;;;;;;19.20;41.96;92775.50;5032118;28;20036;-72
2022/07/31 04:26:42;;;;;;;5.85;2.50;;;;;;;19.24;41.91;92776.38;5034977;28;20413;-72
2022/07/31 04:29:07;;;;;;;7.78;2.47;;;;;;;19.24;41.98;92781.69;5016222;28;20072;-72
2022/07/31 04:31:35;;;;;;;5.75;2.28;;;;;;;19.23;42.15;92777.50;5031147;28;20025;-73
2022/07/31 04:34:02;;;;;;;7.25;2.58;;;;;;;19.22;42.28;92775.94;5032652;28;20029;-72
2022/07/31 04:36:27;;;;;;;4.78;2.20;;;;;;;19.21;42.50;92782.38;5029006;28;20038;-72
2022/07/31 04:38:53;;;;;;;4.10;2.00;;;;;;;19.19;42.99;92776.63;5029387;28;20037;-71
2022/07/31 04:41:20;;;;;;;4.13;2.33;;;;;;;19.20;43.27;92786.09;5013109;28;20140;-72
2022/07/31 04:43:45;;;;;;;5.55;2.45;;;;;;;19.21;43.32;92774.41;5016155;28;20115;-72
2022/07/31 04:46:11;;;;;;;5.40;2.40;;;;;;;19.25;42.75;92769.97;5032479;28;20037;-72
2022/07/31 04:48:37;;;;;;;6.63;2.50;;;;;;;19.25;42.73;92775.28;5016400;28;20725;-72
2022/07/31 04:51:04;;;;;;;7.57;2.40;;;;;;;19.24;43.45;92786.22;5032572;28;20029;-72
2022/07/31 04:53:29;;;;;;;7.45;2.55;;;;;;;19.23;43.47;92782.00;5016034;28;20060;-72
2022/07/31 04:58:40;;;;;;;5.70;2.50;;;;;;;19.25;44.04;92780.59;5050376;28;20041;-72
2022/07/31 05:01:05;;;;;;;5.05;2.30;;;;;;;19.26;43.89;92781.38;5032418;28;20586;-72
2022/07/31 05:03:31;;;;;;;5.53;2.33;;;;;;;19.27;44.47;92783.69;5032340;28;20033;-72
2022/07/31 05:06:07;;;;;;;3.97;2.10;;;;;;;19.29;44.54;92786.75;5050234;28;20047;-72
2022/07/31 05:08:32;;;;;;;5.18;2.70;;;;;;;19.34;44.13;92789.22;5032391;28;20075;-72
2022/07/31 05:13:42;;;;;;;4.07;2.20;;;;;;;19.45;42.85;92783.44;5024812;28;20511;-75
2022/07/31 05:16:10;;;;;;;6.30;2.30;;;;;;;19.53;43.42;92795.81;5012587;28;20038;-74
2022/07/31 05:18:36;;;;;;;6.85;2.33;;;;;;;19.58;43.79;92787.63;5012593;28;20033;-74
2022/07/31 05:21:31;;;;;;;7.82;2.30;;;;;;;19.61;43.89;92794.16;5010667;28;20060;-74
2022/07/31 05:24:17;;;;;;;4.50;2.47;;;;;;;19.62;44.22;92793.06;5015559;28;20041;-74
2022/07/31 05:26:52;;;;;;;8.35;2.42;;;;;;;19.65;44.21;92798.44;5047817;28;20394;-74
2022/07/31 05:29:18;;;;;;;5.70;2.40;;;;;;;19.69;43.86;92793.28;5020645;28;20030;-74
2022/07/31 05:31:43;;;;;;;4.28;2.38;;;;;;;19.78;44.41;92801.13;5024584;28;20439;-74
2022/07/31 05:34:09;;;;;;;4.85;2.40;;;;;;;19.83;44.60;92800.88;5003982;28;20104;-74
2022/07/31 05:36:35;;;;;;;6.28;2.30;;;;;;;19.89;45.18;92797.66;5032234;28;20463;-74
2022/07/31 05:39:01;;;;;;;5.00;2.38;;;;;;;19.97;44.87;92795.97;5021813;28;20041;-73
2022/07/31 05:41:28;;;;;;;4.38;2.33;;;;;;;20.03;45.08;92791.97;5053410;28;20025;-74
2022/07/31 05:44:03;;;;;;;5.07;2.20;;;;;;;20.12;44.13;92789.94;5053823;28;20045;-74
2022/07/31 05:46:34;;;;;;;3.50;2.10;;;;;;;20.19;44.02;92789.38;5019452;28;20033;-74
2022/07/31 05:49:00;;;;;;;7.25;2.40;;;;;;;20.27;44.32;92793.00;5035608;28;20044;-75
2022/07/31 05:51:25;;;;;;;5.30;2.30;;;;;;;20.41;44.39;92789.97;5035473;28;20033;-74
2022/07/31 05:53:51;;;;;;;5.88;2.30;;;;;;;20.51;43.34;92784.94;5034244;28;20131;-74
2022/07/31 05:56:35;;;;;;;4.63;2.10;;;;;;;20.70;41.98;92786.94;5038619;28;20044;-74
2022/07/31 05:59:01;;;;;;;6.40;2.40;;;;;;;20.79;42.33;92787.56;5034423;28;20045;-75
2022/07/31 06:01:26;;;;;;;4.50;2.20;;;;;;;20.92;42.74;92798.91;5016435;28;20028;-73
2022/07/31 06:03:52;;;;;;;3.15;2.00;;;;;;;21.17;42.20;92793.41;5034040;28;20041;-75
2022/07/31 06:06:26;;;;;;;4.95;2.10;;;;;;;21.81;41.06;92788.75;5035619;28;20040;-75
2022/07/31 06:08:52;;;;;;;3.28;2.00;;;;;;;22.86;38.94;92789.66;5035276;28;20049;-75
2022/07/31 06:11:19;;;;;;;5.25;2.40;;;;;;;23.83;36.93;92793.84;5020939;28;20025;-75
2022/07/31 06:13:45;;;;;;;4.43;2.10;;;;;;;24.73;36.21;92791.13;5038038;28;20123;-75
2022/07/31 06:16:17;;;;;;;4.45;2.30;;;;;;;25.61;34.41;92788.06;5035279;28;20040;-75
2022/07/31 06:18:43;;;;;;;8.45;2.30;;;;;;;26.30;32.36;92792.66;5035308;28;20416;-76
2022/07/31 06:21:08;;;;;;;5.43;2.20;;;;;;;27.06;30.74;92797.09;5018744;28;20044;-76
2022/07/31 06:23:34;;;;;;;4.43;2.00;;;;;;;27.77;28.80;92792.91;5035189;28;20048;-75
2022/07/31 06:26:17;;;;;;;4.78;1.90;;;;;;;28.13;28.46;92787.47;5035456;28;20455;-76
2022/07/31 06:28:43;;;;;;;5.20;2.10;;;;;;;28.66;28.20;92786.50;5036050;28;20079;-73
2022/07/31 06:31:20;;;;;;;3.50;2.05;;;;;;;28.74;27.78;92795.31;5035677;28;20116;-74
2022/07/31 06:33:47;;;;;;;6.78;2.45;;;;;;;29.34;26.77;92804.97;5031967;28;20087;-78
2022/07/31 06:36:13;;;;;;;4.07;2.30;;;;;;;29.47;27.09;92797.16;5000554;28;20040;-74
2022/07/31 06:38:44;;;;;;;6.03;2.17;;;;;;;29.70;26.24;92795.81;5028491;28;20086;-76
2022/07/31 06:41:48;;;;;;;;;;;;;;;29.58;26.17;92787.03;4983095;28;20111;-76
2022/07/31 06:44:30;;;;;;;4.45;2.10;;;;;;;29.95;25.89;92790.19;5020540;28;19913;-76
2022/07/31 06:47:17;;;;;;;4.72;2.30;;;;;;;29.51;27.90;92784.41;5043323;28;20700;-77
2022/07/31 06:49:48;;;;;;;5.20;2.45;;;;;;;29.31;27.03;92792.28;5047780;28;20380;-75
2022/07/31 06:52:14;;;;;;;8.15;2.40;;;;;;;28.30;27.43;92792.00;5034676;28;20041;-75
2022/07/31 06:54:41;;;;;;;6.10;2.10;;;;;;;28.14;28.93;92797.06;5028916;28;20084;-76
2022/07/31 06:57:07;;;;;;;3.67;2.30;;;;;;;27.80;30.21;92794.81;5044405;28;20036;-75
2022/07/31 06:59:33;;;;;;;3.78;2.03;;;;;;;27.62;30.66;92794.81;5032074;28;20041;-76
2022/07/31 07:01:58;;;;;;;6.28;2.13;;;;;;;27.27;31.40;92790.22;5014164;28;20056;-75
2022/07/31 07:04:24;;;;;;;3.55;2.17;;;;;;;27.14;31.29;92793.28;5002285;28;20044;-76
2022/07/31 07:06:50;;;;;;;6.38;2.17;;;;;;;27.33;29.96;92794.84;5033194;28;20071;-76
2022/07/31 07:09:16;;;;;;;5.05;2.40;;;;;;;27.16;32.35;92795.59;5031442;28;20025;-76
2022/07/31 07:11:41;;;;;;;5.97;2.25;;;;;;;26.69;32.27;92792.06;5032029;28;20546;-76
2022/07/31 07:14:07;;;;;;;7.05;2.17;;;;;;;26.98;31.84;92795.56;5014572;28;20041;-75
2022/07/31 07:16:33;;;;;;;6.50;2.20;;;;;;;27.61;31.78;92796.75;5042515;28;20167;-76
2022/07/31 07:18:59;;;;;;;7.93;2.28;;;;;;;27.64;30.74;92791.75;5022495;28;20046;-76
2022/07/31 07:21:25;;;;;;;4.03;2.30;;;;;;;27.96;30.09;92784.41;5050798;28;20514;-76
2022/07/31 07:23:51;;;;;;;6.40;2.28;;;;;;;28.12;30.78;92784.00;5021595;28;20029;-76
2022/07/31 07:26:34;;;;;;;5.03;2.22;;;;;;;28.03;29.78;92795.19;5025698;28;20045;-76
2022/07/31 07:29:01;;;;;;;6.30;2.20;;;;;;;27.87;29.68;92783.28;5032008;28;20143;-77
2022/07/31 07:31:28;;;;;;;5.13;2.25;;;;;;;27.41;30.12;92787.56;5031507;28;20090;-76
2022/07/31 07:33:55;;;;;;;3.90;1.92;;;;;;;27.27;32.55;92792.91;5013746;28;20525;-76
2022/07/31 07:36:23;;;;;;;6.05;2.40;;;;;;;27.30;31.53;92789.47;5008930;28;20036;-77
2022/07/31 07:38:49;;;;;;;4.32;2.40;;;;;;;27.38;32.26;92783.72;5029443;28;20025;-75
2022/07/31 07:41:15;;;;;;;3.35;1.92;;;;;;;26.62;33.99;92784.00;5022903;28;20350;-76
2022/07/31 07:43:42;;;;;;;3.65;2.20;;;;;;;26.46;36.72;92786.97;5012077;28;20044;-75
2022/07/31 07:46:08;;;;;;;5.13;2.30;;;;;;;25.94;35.18;92785.22;5036240;28;20033;-76
2022/07/31 07:48:36;;;;;;;4.80;2.35;;;;;;;26.24;35.05;92788.81;5001875;28;20032;-75
2022/07/31 07:51:17;;;;;;;4.18;2.30;;;;;;;26.36;36.84;92799.94;5015704;28;20043;-76
2022/07/31 07:54:05;;;;;;;4.13;2.00;;;;;;;26.07;35.96;92792.94;5025203;28;20056;-76
2022/07/31 07:56:36;;;;;;;6.45;2.30;;;;;;;25.91;33.46;92785.94;5046673;28;20049;-76
2022/07/31 07:59:02;;;;;;;6.13;2.33;;;;;;;26.13;36.08;92786.06;5017397;28;20503;-77
2022/07/31 08:01:46;;;;;;;4.45;2.00;;;;;;;26.14;32.30;92799.13;5042180;28;20055;-76
2022/07/31 08:04:27;;;;;;;6.70;2.20;;;;;;;26.50;33.64;92796.56;5012635;28;20069;-76
2022/07/31 08:06:53;;;;;;;5.72;2.45;;;;;;;26.01;30.74;92802.47;5043382;28;20075;-77
2022/07/31 08:09:22;;;;;;;3.88;2.10;;;;;;;25.94;33.10;92795.94;5048474;28;20040;-76
2022/07/31 08:12:07;;;;;;;3.72;2.00;;;;;;;26.33;33.34;92795.34;5033948;28;20566;-77
2022/07/31 08:14:53;;;;;;;3.92;1.90;;;;;;;26.71;32.85;92793.22;4986767;28;20037;-75
2022/07/31 08:17:38;;;;;;;3.92;2.03;;;;;;;27.07;33.03;92787.91;5046725;28;20067;-75
2022/07/31 08:20:05;;;;;;;4.18;2.20;;;;;;;27.42;32.21;92791.75;5026426;28;20033;-76
2022/07/31 08:22:31;;;;;;;4.35;2.30;;;;;;;27.59;30.87;92792.91;5038683;28;20045;-76
2022/07/31 08:24:56;;;;;;;4.70;2.10;;;;;;;26.79;30.43;92789.41;5014002;28;20044;-76
2022/07/31 08:27:26;;;;;;;5.03;2.33;;;;;;;26.69;32.91;92787.44;5013898;28;20052;-76
2022/07/31 08:29:54;;;;;;;5.35;2.30;;;;;;;26.85;34.23;92789.03;5003077;28;20471;-79
2022/07/31 08:32:22;;;;;;;7.45;2.35;;;;;;;27.04;33.38;92783.28;5034240;28;20059;-79
2022/07/31 08:35:13;;;;;;;4.72;2.10;;;;;;;27.13;30.56;92783.69;5023810;28;20163;-76
2022/07/31 08:37:42;;;;;;;4.40;2.35;;;;;;;26.87;34.51;92778.66;5034143;28;20044;-78
2022/07/31 08:40:09;;;;;;;6.70;2.60;;;;;;;27.01;35.38;92784.03;5031452;28;20087;-80
2022/07/31 08:42:36;;;;;;;3.80;2.33;;;;;;;26.82;33.93;92789.75;5017257;28;20463;-81
2022/07/31 08:45:05;;;;;;;5.97;2.40;;;;;;;26.62;34.70;92790.13;5001891;28;20552;-78
2022/07/31 08:47:34;;;;;;;3.42;2.03;;;;;;;26.49;33.27;92786.22;5026684;28;20041;-79
2022/07/31 08:50:07;;;;;;;4.25;1.95;;;;;;;26.02;39.74;92791.38;5035785;28;20036;-77
2022/07/31 08:52:33;;;;;;;3.55;2.00;;;;;;;26.09;35.19;92787.97;5004658;28;20041;-77
2022/07/31 08:55:07;;;;;;;4.68;2.40;;;;;;;26.04;38.55;92782.97;5030072;28;20033;-79
2022/07/31 08:57:33;;;;;;;5.13;2.22;;;;;;;26.24;33.24;92789.56;5052145;28;20044;-77
2022/07/31 08:59:58;;;;;;;4.75;2.10;;;;;;;26.18;36.88;92788.38;5001330;28;20123;-77
2022/07/31 09:02:24;;;;;;;3.90;2.35;;;;;;;26.18;35.83;92791.06;5030237;28;20096;-77
2022/07/31 09:05:28;;;;;;;6.45;2.72;;;;;;;25.81;37.39;92789.31;4957076;28;20043;-77
2022/07/31 09:07:54;;;;;;;4.50;2.30;;;;;;;25.76;39.20;92793.13;4951172;28;20093;-77
2022/07/31 09:10:23;;;;;;;5.60;2.30;;;;;;;25.91;34.58;92785.19;4974868;28;20051;-77
2022/07/31 09:12:50;;;;;;;4.63;2.22;;;;;;;26.11;34.08;92786.44;5030489;28;20032;-77
2022/07/31 09:15:23;;;;;;;15.45;2.25;;;;;;;26.40;34.98;92789.25;5014656;28;20494;-77
2022/07/31 09:17:50;;;;;;;6.18;2.10;;;;;;;26.71;33.75;92795.13;5014927;28;20029;-76
2022/07/31 09:20:18;;;;;;;6.28;2.35;;;;;;;26.64;32.00;92793.19;5014606;28;20044;-77
2022/07/31 09:22:43;;;;;;;6.03;2.53;;;;;;;26.77;34.46;92790.91;5008401;28;20051;-77
2022/07/31 09:25:14;;;;;;;4.18;2.40;;;;;;;26.48;33.86;92798.88;5032957;28;20409;-76
2022/07/31 09:27:40;;;;;;;3.97;2.07;;;;;;;26.53;33.86;92781.63;5036056;28;20037;-77
2022/07/31 09:30:07;;;;;;;7.32;2.25;;;;;;;26.71;32.74;92792.44;5035733;28;20094;-77
2022/07/31 09:32:56;;;;;;;3.45;2.10;;;;;;;26.50;35.16;92785.84;5036186;28;20040;-79
2022/07/31 09:35:52;;;;;;;7.05;2.35;;;;;;;26.56;33.85;92797.75;5019889;28;20029;-77
2022/07/31 09:38:19;;;;;;;5.18;2.05;;;;;;;26.49;32.15;92797.72;5029646;28;20063;-77
2022/07/31 09:41:21;;;;;;;3.22;2.05;;;;;;;26.75;33.14;92782.44;4972216;28;20095;-77
2022/07/31 09:44:07;;;;;;;4.05;2.20;;;;;;;26.92;34.21;92783.66;5025100;28;20078;-77
2022/07/31 09:46:44;;;;;;;7.07;2.40;;;;;;;26.98;32.98;92795.56;5020453;28;20037;-78
2022/07/31 09:49:10;;;;;;;5.20;2.55;;;;;;;26.96;33.47;92787.13;5024605;28;20379;-77
2022/07/31 09:51:43;;;;;;;3.80;2.30;;;;;;;27.23;34.05;92778.72;5029233;28;20013;-78
2022/07/31 09:54:22;;;;;;;5.93;2.30;;;;;;;27.23;33.05;92782.19;5003693;28;20115;-77
2022/07/31 09:56:57;;;;;;;4.22;2.00;;;;;;;27.04;31.42;92782.50;5055683;28;20068;-77
2022/07/31 09:59:26;;;;;;;4.80;2.38;;;;;;;27.42;31.88;92775.63;5037719;28;20039;-78
2022/07/31 10:01:53;;;;;;;3.88;2.20;;;;;;;27.79;32.84;92782.53;5040331;28;20443;-81
2022/07/31 10:04:21;;;;;;;6.07;2.35;;;;;;;27.80;31.56;92770.59;5035904;28;20425;-78
2022/07/31 10:06:50;;;;;;;4.10;2.20;;;;;;;27.74;31.64;92782.91;5041009;28;20379;-78
2022/07/31 10:09:20;;;;;;;4.63;2.00;;;;;;;27.87;28.94;92767.91;5031589;28;20127;-78
2022/07/31 10:12:14;;;;;;;4.82;2.00;;;;;;;28.01;29.84;92772.50;5047690;28;20044;-77
2022/07/31 10:14:42;;;;;;;6.40;2.42;;;;;;;27.64;30.83;92764.88;5017922;28;20041;-77
2022/07/31 10:17:10;;;;;;;3.85;2.22;;;;;;;27.75;31.97;92765.63;5033778;28;20025;-76
2022/07/31 10:19:45;;;;;;;5.60;1.90;;;;;;;27.74;29.62;92769.44;5048203;28;20533;-75
2022/07/31 10:22:22;;;;;;;4.70;1.90;;;;;;;27.47;27.52;92766.41;5024381;28;20138;-76
2022/07/31 10:24:51;;;;;;;4.32;2.08;;;;;;;27.58;27.67;92765.28;5053126;28;20380;-80
2022/07/31 10:27:18;;;;;;;3.60;1.88;;;;;;;27.30;26.94;92757.22;5032291;28;20028;-81
2022/07/31 10:29:48;;;;;;;4.63;2.20;;;;;;;27.54;28.26;92756.44;5019368;28;20036;-76
2022/07/31 10:32:13;;;;;;;3.67;1.90;;;;;;;27.97;29.25;92761.00;5034545;28;20048;-76
2022/07/31 10:35:06;;;;;;;6.45;2.10;;;;;;;28.54;29.92;92760.03;5036980;28;20045;-76
2022/07/31 10:38:14;;;;;;;4.68;2.10;;;;;;;28.47;27.28;92760.81;5035893;28;20033;-76
2022/07/31 10:41:28;;;;;;;5.63;2.28;;;;;;;28.29;26.75;92755.50;5052917;28;20122;-79
2022/07/31 10:43:59;;;;;;;4.00;2.00;;;;;;;28.18;25.92;92749.38;5031313;28;20517;-78
2022/07/31 10:46:56;;;;;;;4.90;2.22;;;;;;;28.22;29.24;92755.53;5037655;28;20302;-82
2022/07/31 10:49:47;;;;;;;4.25;1.80;;;;;;;28.22;25.92;92740.13;5047250;28;20044;-80
2022/07/31 10:52:36;;;;;;;5.50;2.10;;;;;;;28.23;26.51;92751.66;5052901;28;20033;-78
2022/07/31 10:55:18;;;;;;;6.10;2.25;;;;;;;28.21;26.57;92744.00;5035826;28;20049;-78
2022/07/31 10:58:18;;;;;;;3.55;2.00;;;;;;;28.19;26.99;92740.94;5019834;28;20521;-77
2022/07/31 11:01:04;;;;;;;6.35;2.28;;;;;;;28.61;27.57;92738.44;5045007;28;20346;-83
2022/07/31 11:03:59;;;;;;;5.15;2.00;;;;;;;28.44;27.84;92740.81;5041551;28;20069;-78
2022/07/31 11:06:43;;;;;;;4.82;2.10;;;;;;;28.40;26.41;92742.75;5026614;28;20033;-79
2022/07/31 11:09:27;;;;;;;4.22;2.33;;;;;;;28.59;27.63;92735.38;5035370;28;20055;-78
2022/07/31 11:12:03;;;;;;;3.58;1.80;;;;;;;28.67;26.72;92726.09;5022615;28;20037;-76
2022/07/31 11:14:50;;;;;;;3.30;1.70;;;;;;;28.60;27.32;92728.84;5046169;28;20035;-77
2022/07/31 11:17:35;;;;;;;5.00;2.03;;;;;;;29.07;28.45;92723.91;5022664;28;20042;-78
2022/07/31 11:20:24;;;;;;;3.53;1.90;;;;;;;29.41;26.63;92718.63;5046442;28;20504;-78
2022/07/31 11:23:00;;;;;;;4.15;1.80;;;;;;;29.04;27.24;92724.69;5051815;28;20030;-77
2022/07/31 11:25:28;;;;;;;7.57;2.00;;;;;;;28.73;26.48;92726.44;5047437;28;20039;-77
2022/07/31 11:27:57;;;;;;;4.07;2.00;;;;;;;28.45;27.90;92715.41;5052663;28;20116;-76
2022/07/31 11:30:22;;;;;;;3.47;1.98;;;;;;;28.82;27.31;92721.38;5038720;28;20128;-76
2022/07/31 11:32:52;;;;;;;5.60;2.10;;;;;;;28.89;26.35;92717.84;5054596;28;20101;-77
2022/07/31 11:35:30;;;;;;;6.38;2.13;;;;;;;29.11;27.40;92719.25;5031033;28;20099;-77
2022/07/31 11:37:58;;;;;;;2.88;1.80;;;;;;;29.30;25.57;92712.56;5017628;28;20049;-78
2022/07/31 11:40:25;;;;;;;5.85;1.90;;;;;;;29.32;25.08;92709.47;5049477;28;20041;-78
2022/07/31 11:42:50;;;;;;;3.80;1.95;;;;;;;29.01;26.98;92706.63;5038354;28;20025;-76
2022/07/31 11:45:16;;;;;;;5.57;1.98;;;;;;;28.89;25.27;92710.56;5020481;28;20045;-77
2022/07/31 11:47:47;;;;;;;4.07;2.35;;;;;;;29.17;26.49;92706.91;5000821;28;20049;-78
2022/07/31 11:50:15;;;;;;;4.88;2.53;;;;;;;29.41;26.14;92696.31;5053019;28;20028;-78
2022/07/31 11:52:42;;;;;;;3.20;1.90;;;;;;;29.22;25.94;92692.22;5052109;28;20089;-78
2022/07/31 11:55:12;;;;;;;5.30;2.00;;;;;;;29.26;26.86;92696.41;5052465;28;20049;-78
2022/07/31 11:57:40;;;;;;;3.80;2.00;;;;;;;29.21;28.46;92688.78;5031707;28;20026;-77